createdAt,value
2018-12-26T00:00:59.595Z,9.98
2018-12-26T00:03:27.758Z,10.38
2018-12-26T00:05:55.215Z,14.85
2018-12-26T00:08:24.815Z,13.93
2018-12-26T00:10:52.323Z,13.35
2018-12-26T00:13:19.991Z,13.75
2018-12-26T00:15:47.732Z,9.73
2018-12-26T00:18:15.232Z,13.82
2018-12-26T00:20:42.747Z,13.45
2018-12-26T00:23:11.217Z,18.45
2018-12-26T00:25:38.742Z,14.95
2018-12-26T00:28:06.240Z,10.23
2018-12-26T00:30:33.932Z,13.80
2018-12-26T00:35:34.130Z,10.30
2018-12-26T00:38:01.725Z,12.10
2018-12-26T00:40:29.584Z,10.90
2018-12-26T00:42:57.120Z,11.88
2018-12-26T00:45:24.636Z,15.23
2018-12-26T00:47:53.024Z,10.68
2018-12-26T00:50:20.532Z,10.65
2018-12-26T00:52:48.210Z,9.63
2018-12-26T00:55:15.795Z,10.35
2018-12-26T00:57:43.316Z,11.75
2018-12-26T01:00:10.968Z,10.68
2018-12-26T01:02:39.351Z,11.88
2018-12-26T01:05:06.935Z,13.35
2018-12-26T01:07:35.370Z,9.63
2018-12-26T01:10:03.206Z,9.43
2018-12-26T01:12:30.783Z,10.95
2018-12-26T01:14:58.266Z,13.52
2018-12-26T01:17:25.833Z,10.35
2018-12-26T01:19:53.414Z,9.13
2018-12-26T01:22:21.359Z,10.93
2018-12-26T01:24:48.926Z,10.32
2018-12-26T01:27:16.608Z,10.45
2018-12-26T01:29:44.198Z,13.23
2018-12-26T01:32:11.829Z,9.15
2018-12-26T01:34:40.735Z,11.50
2018-12-26T01:37:08.318Z,11.50
2018-12-26T01:39:35.835Z,10.57
2018-12-26T01:42:03.467Z,12.63
2018-12-26T01:44:30.962Z,9.70
2018-12-26T01:46:58.556Z,11.10
2018-12-26T01:49:26.218Z,9.23
2018-12-26T01:51:53.738Z,10.48
2018-12-26T01:54:21.250Z,10.15
2018-12-26T01:56:48.763Z,9.20
2018-12-26T01:59:16.250Z,9.70
2018-12-26T02:01:43.859Z,9.82
2018-12-26T02:04:11.643Z,11.20
2018-12-26T02:06:39.244Z,11.32
2018-12-26T02:09:06.819Z,9.60
2018-12-26T02:11:34.415Z,14.38
2018-12-26T02:14:02.217Z,10.20
2018-12-26T02:16:29.713Z,9.73
2018-12-26T02:18:57.225Z,12.20
2018-12-26T02:21:24.816Z,13.15
2018-12-26T02:26:26.115Z,11.80
2018-12-26T02:28:53.687Z,12.55
2018-12-26T02:31:21.249Z,11.70
2018-12-26T02:33:48.861Z,11.70
2018-12-26T02:36:17.217Z,10.82
2018-12-26T02:38:44.839Z,12.90
2018-12-26T02:41:12.495Z,13.62
2018-12-26T02:43:40.517Z,13.02
2018-12-26T02:46:08.413Z,11.75
2018-12-26T02:48:35.991Z,11.50
2018-12-26T02:51:03.991Z,14.43
2018-12-26T02:53:32.652Z,14.18
2018-12-26T02:56:00.321Z,11.85
2018-12-26T02:58:28.715Z,14.50
2018-12-26T03:00:56.769Z,10.52
2018-12-26T03:03:24.944Z,12.35
2018-12-26T03:05:52.692Z,13.98
2018-12-26T03:08:20.629Z,13.98
2018-12-26T03:10:48.983Z,9.75
2018-12-26T03:13:16.631Z,13.85
2018-12-26T03:15:44.364Z,11.07
2018-12-26T03:18:11.925Z,12.25
2018-12-26T03:20:39.764Z,10.13
2018-12-26T03:23:07.350Z,11.20
2018-12-26T03:25:35.223Z,13.18
2018-12-26T03:28:03.063Z,9.52
2018-12-26T03:30:30.650Z,9.38
2018-12-26T03:32:58.294Z,13.73
2018-12-26T03:35:25.993Z,11.23
2018-12-26T03:37:53.543Z,13.23
2018-12-26T03:40:21.103Z,11.12
2018-12-26T03:42:48.796Z,14.38
2018-12-26T03:45:16.542Z,12.75
2018-12-26T03:47:44.890Z,14.25
2018-12-26T03:50:12.497Z,12.80
2018-12-26T03:52:40.057Z,14.38
2018-12-26T03:55:07.560Z,11.15
2018-12-26T03:57:35.145Z,10.35
2018-12-26T04:00:02.784Z,11.00
2018-12-26T04:02:30.253Z,12.68
2018-12-26T04:04:57.767Z,12.32
2018-12-26T04:07:25.360Z,12.00
2018-12-26T04:09:52.872Z,11.52
2018-12-26T04:12:21.147Z,13.68
2018-12-26T04:14:48.687Z,17.55
2018-12-26T04:17:16.223Z,10.68
2018-12-26T04:19:43.677Z,13.35
2018-12-26T04:22:11.212Z,13.07
2018-12-26T04:24:38.901Z,11.30
2018-12-26T04:27:15.306Z,14.60
2018-12-26T04:29:34.739Z,11.90
2018-12-26T04:32:02.444Z,11.98
2018-12-26T04:34:31.703Z,10.48
2018-12-26T04:36:59.187Z,10.25
2018-12-26T04:39:26.738Z,16.83
2018-12-26T04:41:54.346Z,12.35
2018-12-26T04:44:21.931Z,13.80
2018-12-26T04:46:49.608Z,12.25
2018-12-26T04:49:17.287Z,14.50
2018-12-26T04:51:45.013Z,10.52
2018-12-26T04:54:12.662Z,12.48
2018-12-26T04:56:40.180Z,13.90
2018-12-26T04:59:07.846Z,12.37
2018-12-26T05:01:35.403Z,10.10
2018-12-26T05:04:03.530Z,15.13
2018-12-26T05:06:31.505Z,10.90
2018-12-26T05:08:59.090Z,12.27
2018-12-26T05:11:26.621Z,13.88
2018-12-26T05:13:55.152Z,13.07
2018-12-26T05:16:23.852Z,14.95
2018-12-26T05:18:51.595Z,15.48
2018-12-26T05:21:19.152Z,14.45
2018-12-26T05:23:47.613Z,14.00
2018-12-26T05:26:16.150Z,16.37
2018-12-26T05:28:43.638Z,19.87
2018-12-26T05:31:11.299Z,14.30
2018-12-26T05:33:38.823Z,11.38
2018-12-26T05:36:06.439Z,11.90
2018-12-26T05:38:34.043Z,14.20
2018-12-26T05:41:01.588Z,12.80
2018-12-26T05:43:29.165Z,13.05
2018-12-26T05:45:56.772Z,14.70
2018-12-26T05:48:24.312Z,13.05
2018-12-26T05:50:51.839Z,12.37
2018-12-26T05:53:19.540Z,18.90
2018-12-26T05:55:47.117Z,9.85
2018-12-26T05:58:14.643Z,11.27
2018-12-26T06:00:42.377Z,13.57
2018-12-26T06:03:10.310Z,11.70
2018-12-26T06:05:37.817Z,11.93
2018-12-26T06:08:05.405Z,12.57
2018-12-26T06:10:33.057Z,10.40
2018-12-26T06:13:00.582Z,12.57
2018-12-26T06:15:28.103Z,12.00
2018-12-26T06:17:55.622Z,13.52
2018-12-26T06:20:23.098Z,13.43
2018-12-26T06:22:50.582Z,12.85
2018-12-26T06:25:18.136Z,10.52
2018-12-26T06:27:51.403Z,9.45
2018-12-26T06:30:13.647Z,13.85
2018-12-26T06:32:41.113Z,12.20
2018-12-26T06:35:08.587Z,10.80
2018-12-26T06:37:36.953Z,11.10
2018-12-26T06:40:04.495Z,10.02
2018-12-26T06:42:31.953Z,13.68
2018-12-26T06:44:59.531Z,11.63
2018-12-26T06:47:27.692Z,12.75
2018-12-26T06:49:55.254Z,13.98
2018-12-26T06:52:22.927Z,12.00
2018-12-26T06:54:50.605Z,11.55
2018-12-26T06:57:18.274Z,11.93
2018-12-26T06:59:46.018Z,14.98
2018-12-26T07:02:13.547Z,14.50
2018-12-26T07:04:41.204Z,9.02
2018-12-26T07:07:09.084Z,11.45
2018-12-26T07:09:36.564Z,13.77
2018-12-26T07:12:04.725Z,13.73
2018-12-26T07:14:32.171Z,12.13
2018-12-26T07:16:59.699Z,12.50
2018-12-26T07:19:27.174Z,10.30
2018-12-26T07:21:54.851Z,11.68
2018-12-26T07:24:22.386Z,10.85
2018-12-26T07:26:49.883Z,14.25
2018-12-26T07:29:17.535Z,9.65
2018-12-26T07:31:45.089Z,10.95
2018-12-26T07:34:12.771Z,14.55
2018-12-26T07:36:40.797Z,11.75
2018-12-26T07:39:08.549Z,12.00
2018-12-26T07:41:36.112Z,13.10
2018-12-26T07:44:03.907Z,11.25
2018-12-26T07:46:31.417Z,11.20
2018-12-26T07:48:58.954Z,11.73
2018-12-26T07:51:26.519Z,13.88
2018-12-26T07:53:54.398Z,9.68
2018-12-26T07:56:21.973Z,10.80
2018-12-26T07:58:49.642Z,16.87
2018-12-26T08:01:17.239Z,13.18
2018-12-26T08:03:46.258Z,13.50
2018-12-26T08:06:13.938Z,20.52
2018-12-26T08:08:41.514Z,11.90
2018-12-26T08:11:09.077Z,10.82
2018-12-26T08:13:36.690Z,14.73
2018-12-26T08:16:04.250Z,11.85
2018-12-26T08:18:31.775Z,9.52
2018-12-26T08:20:59.306Z,10.68
2018-12-26T08:23:26.852Z,11.63
2018-12-26T08:25:54.500Z,9.95
2018-12-26T08:28:26.500Z,14.50
2018-12-26T08:30:49.773Z,11.38
2018-12-26T08:33:17.299Z,10.80
2018-12-26T08:35:45.362Z,12.35
2018-12-26T08:38:12.882Z,10.73
2018-12-26T08:40:40.423Z,14.38
2018-12-26T08:43:08.964Z,11.00
2018-12-26T08:45:37.225Z,16.62
2018-12-26T08:48:05.366Z,14.45
2018-12-26T08:50:33.031Z,13.98
2018-12-26T08:53:00.485Z,13.27
2018-12-26T08:55:28.079Z,9.70
2018-12-26T08:57:55.592Z,17.65
2018-12-26T09:00:23.780Z,10.40
2018-12-26T09:02:52.143Z,13.55
2018-12-26T09:05:20.481Z,11.30
2018-12-26T09:07:48.039Z,11.50
2018-12-26T09:10:16.518Z,11.65
2018-12-26T09:12:44.026Z,12.13
2018-12-26T09:15:11.556Z,12.45
2018-12-26T09:17:39.291Z,13.10
2018-12-26T09:20:07.373Z,16.55
2018-12-26T09:22:34.755Z,12.00
2018-12-26T09:25:02.245Z,15.48
2018-12-26T09:27:29.707Z,12.43
2018-12-26T09:29:57.315Z,10.60
2018-12-26T09:32:24.970Z,13.48
2018-12-26T09:34:52.606Z,13.48
2018-12-26T09:37:20.179Z,13.25
2018-12-26T09:39:48.736Z,14.30
2018-12-26T09:42:16.278Z,12.93
2018-12-26T09:44:44.551Z,11.68
2018-12-26T09:47:13.351Z,15.35
2018-12-26T09:49:41.006Z,13.70
2018-12-26T09:52:08.866Z,12.77
2018-12-26T09:54:36.604Z,18.55
2018-12-26T09:57:04.273Z,14.02
2018-12-26T09:59:31.751Z,12.73
2018-12-26T10:01:59.430Z,10.93
2018-12-26T10:04:27.145Z,19.35
2018-12-26T10:06:55.477Z,12.57
2018-12-26T10:09:25.030Z,11.55
2018-12-26T10:11:53.913Z,13.35
2018-12-26T10:14:21.961Z,11.25
2018-12-26T10:16:49.587Z,13.68
2018-12-26T10:19:17.240Z,10.65
2018-12-26T10:21:46.322Z,12.27
2018-12-26T10:24:14.068Z,10.48
2018-12-26T10:26:41.757Z,14.48
2018-12-26T10:29:09.721Z,14.55
2018-12-26T10:31:38.298Z,9.10
2018-12-26T10:34:06.145Z,13.88
2018-12-26T10:36:36.517Z,13.80
2018-12-26T10:39:05.534Z,15.48
2018-12-26T10:41:34.583Z,14.43
2018-12-26T10:44:04.442Z,9.65
2018-12-26T10:46:34.168Z,10.68
2018-12-26T10:49:01.853Z,17.92
2018-12-26T10:51:30.369Z,13.00
2018-12-26T10:53:58.812Z,10.75
2018-12-26T10:56:26.417Z,10.20
2018-12-26T10:58:54.830Z,14.32
2018-12-26T11:01:22.345Z,10.98
2018-12-26T11:03:50.001Z,14.87
2018-12-26T11:06:18.288Z,11.77
2018-12-26T11:08:45.857Z,10.93
2018-12-26T11:11:13.313Z,12.27
2018-12-26T11:13:40.901Z,11.52
2018-12-26T11:16:08.521Z,10.27
2018-12-26T11:18:36.287Z,11.88
2018-12-26T11:21:04.067Z,12.80
2018-12-26T11:23:31.741Z,14.38
2018-12-26T11:25:59.486Z,10.95
2018-12-26T11:28:27.113Z,14.60
2018-12-26T11:30:55.117Z,13.77
2018-12-26T11:33:22.775Z,14.23
2018-12-26T11:35:50.594Z,12.45
2018-12-26T11:38:18.875Z,10.40
2018-12-26T11:40:47.247Z,12.15
2018-12-26T11:43:14.965Z,17.83
2018-12-26T11:45:43.156Z,9.98
2018-12-26T11:48:13.864Z,11.20
2018-12-26T11:50:42.191Z,13.80
2018-12-26T11:53:09.736Z,14.18
2018-12-26T11:55:37.222Z,13.95
2018-12-26T11:58:04.837Z,13.52
2018-12-26T12:00:33.258Z,13.68
2018-12-26T12:03:01.348Z,15.50
2018-12-26T12:05:28.907Z,12.95
2018-12-26T12:07:56.388Z,13.45
2018-12-26T12:10:24.213Z,10.77
2018-12-26T12:12:51.676Z,16.58
2018-12-26T12:15:19.170Z,14.60
2018-12-26T12:17:46.836Z,12.75
2018-12-26T12:20:14.600Z,12.02
2018-12-26T12:22:42.064Z,12.70
2018-12-26T12:25:10.025Z,13.07
2018-12-26T12:27:37.529Z,13.00
2018-12-26T12:30:05.341Z,13.15
2018-12-26T12:32:34.642Z,10.80
2018-12-26T12:35:02.193Z,10.80
2018-12-26T12:37:29.787Z,12.07
2018-12-26T12:39:57.927Z,11.80
2018-12-26T12:42:26.593Z,13.10
2018-12-26T12:44:54.102Z,13.70
2018-12-26T12:49:55.419Z,14.65
2018-12-26T12:52:22.890Z,10.60
2018-12-26T12:54:50.520Z,13.65
2018-12-26T12:57:18.056Z,13.20
2018-12-26T12:59:45.646Z,16.05
2018-12-26T13:02:13.162Z,15.40
2018-12-26T13:04:40.988Z,9.45
2018-12-26T13:36:33.488Z,14.90
2018-12-26T13:56:15.647Z,11.85
2018-12-26T13:58:43.557Z,12.30
2018-12-26T14:01:11.854Z,15.13
2018-12-26T14:03:39.410Z,8.63
2018-12-26T14:06:07.532Z,11.48
2018-12-26T14:08:35.356Z,12.63
2018-12-26T14:11:02.853Z,9.60
2018-12-26T14:13:31.571Z,12.20
2018-12-26T14:15:59.129Z,16.58
2018-12-26T14:18:27.439Z,15.33
2018-12-26T14:20:54.931Z,15.30
2018-12-26T14:23:22.469Z,10.80
2018-12-26T14:25:50.165Z,16.25
2018-12-26T14:28:17.789Z,14.03
2018-12-26T14:30:45.376Z,9.32
2018-12-26T14:33:13.509Z,11.32
2018-12-26T14:35:42.070Z,12.45
2018-12-26T14:38:10.054Z,17.33
2018-12-26T14:40:37.523Z,13.45
2018-12-26T14:43:07.905Z,15.32
2018-12-26T15:44:34.565Z,9.40
2018-12-26T15:49:29.777Z,12.90
2018-12-26T15:51:57.305Z,11.48
2018-12-26T15:54:24.756Z,15.98
2018-12-26T15:56:53.008Z,11.27
2018-12-26T15:59:20.481Z,9.20
2018-12-26T16:01:48.023Z,13.02
2018-12-26T16:04:15.603Z,12.40
2018-12-26T16:06:43.184Z,12.15
2018-12-26T16:09:10.696Z,12.73
2018-12-26T16:11:38.330Z,14.48
2018-12-26T16:14:05.812Z,14.32
2018-12-26T16:16:33.893Z,12.60
2018-12-26T16:19:01.785Z,12.05
2018-12-26T16:21:29.364Z,9.73
2018-12-26T16:23:56.889Z,14.10
2018-12-26T16:26:24.372Z,16.85
2018-12-26T16:28:52.747Z,10.73
2018-12-26T16:31:20.359Z,13.13
2018-12-26T16:33:48.325Z,13.43
2018-12-26T16:36:15.934Z,12.57
2018-12-26T16:38:43.456Z,14.68
2018-12-26T16:41:11.002Z,15.80
2018-12-26T16:43:38.514Z,11.98
2018-12-26T16:46:05.977Z,13.93
2018-12-26T16:48:33.530Z,12.40
2018-12-26T16:51:01.096Z,11.50
2018-12-26T16:53:28.636Z,13.48
2018-12-26T16:55:56.262Z,17.00
2018-12-26T16:58:23.801Z,14.05
2018-12-26T17:00:55.115Z,12.30
2018-12-26T17:03:18.965Z,13.62
2018-12-26T17:05:46.602Z,10.13
2018-12-26T17:08:14.265Z,22.10
2018-12-26T17:10:41.755Z,14.85
2018-12-26T17:13:09.259Z,15.73
2018-12-26T17:15:38.165Z,14.93
2018-12-26T17:18:05.799Z,16.98
2018-12-26T17:20:33.381Z,17.35
2018-12-26T17:23:03.034Z,16.17
2018-12-26T17:25:30.663Z,17.48
2018-12-26T17:27:58.246Z,20.83
2018-12-26T17:30:25.878Z,14.35
2018-12-26T17:33:00.500Z,16.65
2018-12-26T17:35:22.765Z,17.33
2018-12-26T17:37:51.295Z,14.60
2018-12-26T17:40:18.751Z,13.80
2018-12-26T17:42:46.326Z,12.00
2018-12-26T17:45:15.274Z,16.05
2018-12-26T17:47:42.905Z,13.60
2018-12-26T17:50:22.037Z,15.50
2018-12-26T17:52:49.581Z,13.95
2018-12-26T17:55:18.898Z,18.50
2018-12-26T17:57:46.460Z,12.30
2018-12-26T18:00:14.018Z,13.98
2018-12-26T18:02:42.369Z,15.07
2018-12-26T18:05:09.888Z,15.80
2018-12-26T18:07:37.721Z,17.15
2018-12-26T18:10:05.644Z,13.23
2018-12-26T18:12:34.474Z,13.02
2018-12-26T18:15:02.248Z,12.60
2018-12-26T18:17:29.884Z,12.48
2018-12-26T18:19:58.198Z,13.48
2018-12-26T18:22:30.712Z,11.65
2018-12-26T18:25:00.322Z,10.27
2018-12-26T18:27:27.306Z,11.93
2018-12-26T18:29:55.095Z,11.07
2018-12-26T18:32:23.844Z,14.10
2018-12-26T18:34:51.408Z,13.15
2018-12-26T18:37:19.024Z,17.17
2018-12-26T18:39:46.654Z,15.40
2018-12-26T18:42:14.314Z,14.93
2018-12-26T18:44:41.880Z,14.10
2018-12-26T18:47:09.634Z,17.80
2018-12-26T18:49:38.225Z,12.85
2018-12-26T18:52:05.991Z,14.55
2018-12-26T18:54:33.700Z,15.30
2018-12-26T18:57:01.482Z,17.75
2018-12-26T18:59:29.014Z,14.27
2018-12-26T19:01:56.515Z,14.02
2018-12-26T19:04:24.155Z,13.25
2018-12-26T19:06:51.889Z,14.07
2018-12-26T19:09:19.342Z,12.95
2018-12-26T19:11:46.808Z,12.20
2018-12-26T19:14:15.300Z,13.05
2018-12-26T19:16:42.806Z,13.18
2018-12-26T19:19:10.309Z,13.00
2018-12-26T19:21:38.848Z,11.57
2018-12-26T19:24:06.321Z,12.65
2018-12-26T19:26:33.798Z,12.30
2018-12-26T19:29:01.946Z,13.77
2018-12-26T19:31:29.735Z,12.93
2018-12-26T19:33:57.265Z,14.55
2018-12-26T19:36:26.425Z,15.60
2018-12-26T19:38:54.112Z,17.98
2018-12-26T19:41:21.663Z,17.77
2018-12-26T19:43:49.307Z,19.87
2018-12-26T19:46:17.877Z,22.87
2018-12-26T19:48:45.516Z,19.10
2018-12-26T19:51:13.156Z,17.75
2018-12-26T19:53:40.918Z,21.52
2018-12-26T19:56:09.358Z,21.77
2018-12-26T19:58:36.844Z,18.33
2018-12-26T20:01:04.749Z,21.55
2018-12-26T20:03:32.425Z,15.50
2018-12-26T20:06:00.046Z,15.50
2018-12-26T20:08:27.686Z,15.70
2018-12-26T20:13:22.302Z,17.30
2018-12-26T20:15:50.135Z,15.93
2018-12-26T20:18:18.864Z,17.85
2018-12-26T20:20:46.426Z,21.30
2018-12-26T20:23:14.176Z,20.12
2018-12-26T20:25:41.751Z,18.33
2018-12-26T20:28:09.367Z,15.77
2018-12-26T20:30:36.965Z,17.92
2018-12-26T20:33:04.566Z,17.10
2018-12-26T20:35:32.163Z,21.17
2018-12-26T20:37:59.689Z,20.55
2018-12-26T20:40:27.253Z,17.98
2018-12-26T20:42:54.809Z,16.90
2018-12-26T20:45:25.124Z,21.85
2018-12-26T20:47:53.644Z,19.12
2018-12-26T20:50:21.165Z,22.83
2018-12-26T20:52:48.763Z,16.92
2018-12-26T20:55:16.361Z,17.08
2018-12-26T20:57:43.994Z,21.00
2018-12-26T21:00:11.702Z,17.50
2018-12-26T21:02:39.195Z,20.45
2018-12-26T21:05:07.118Z,17.70
2018-12-26T21:07:34.698Z,23.08
2018-12-26T21:10:02.211Z,22.45
2018-12-26T21:12:29.660Z,24.15
2018-12-26T21:14:57.139Z,22.37
2018-12-26T21:17:24.672Z,21.83
2018-12-26T21:19:52.249Z,16.00
2018-12-26T21:22:19.857Z,23.50
2018-12-26T21:24:51.135Z,20.27
2018-12-26T21:27:18.923Z,26.52
2018-12-26T21:29:46.533Z,23.40
2018-12-26T21:32:15.365Z,26.02
2018-12-26T21:34:43.056Z,22.33
2018-12-26T21:37:10.572Z,24.33
2018-12-26T21:39:38.333Z,23.10
2018-12-26T21:42:05.832Z,21.48
2018-12-26T21:44:34.745Z,22.33
2018-12-26T21:47:02.472Z,27.92
2018-12-26T21:49:30.071Z,25.02
2018-12-26T21:51:58.527Z,19.90
2018-12-26T21:54:26.082Z,20.73
2018-12-26T21:56:53.735Z,21.92
2018-12-26T21:59:21.496Z,18.83
2018-12-26T22:01:50.026Z,29.12
2018-12-26T22:04:20.538Z,23.15
2018-12-26T22:06:48.135Z,21.35
2018-12-26T22:09:18.791Z,22.25
2018-12-26T22:11:46.502Z,24.55
2018-12-26T22:14:14.302Z,24.92
2018-12-26T22:16:41.946Z,21.05
2018-12-26T22:19:10.495Z,28.38
2018-12-26T22:21:38.408Z,23.23
2018-12-26T22:24:05.922Z,20.85
2018-12-26T22:26:34.302Z,22.75
2018-12-26T22:29:03.602Z,23.92
2018-12-26T22:31:33.234Z,22.10
2018-12-26T22:34:00.741Z,18.15
2018-12-26T22:36:28.446Z,23.35
2018-12-26T22:38:55.943Z,24.75
2018-12-26T22:41:23.708Z,27.48
2018-12-26T22:43:51.203Z,21.92
2018-12-26T22:46:21.672Z,20.70
2018-12-26T22:48:49.278Z,23.80
2018-12-26T22:51:17.965Z,19.40
2018-12-26T22:53:45.518Z,21.15
2018-12-26T22:56:13.207Z,21.00
2018-12-26T22:58:40.747Z,21.42
2018-12-26T23:01:08.735Z,21.12
2018-12-26T23:03:36.627Z,22.95
2018-12-26T23:06:04.336Z,24.98
2018-12-26T23:08:31.906Z,20.52
2018-12-26T23:10:59.404Z,18.25
2018-12-26T23:13:28.824Z,23.00
2018-12-26T23:15:56.963Z,25.40
2018-12-26T23:18:24.414Z,25.65
2018-12-26T23:20:52.017Z,22.73
2018-12-26T23:23:19.461Z,23.62
2018-12-26T23:25:47.166Z,21.90
2018-12-26T23:28:14.727Z,23.95
2018-12-26T23:30:42.236Z,20.27
2018-12-26T23:33:10.057Z,21.65
2018-12-26T23:35:39.411Z,22.92
2018-12-26T23:38:06.889Z,24.48
2018-12-26T23:40:34.478Z,20.92
2018-12-26T23:43:02.067Z,19.42
2018-12-26T23:45:30.411Z,20.40
2018-12-26T23:47:59.064Z,19.23
2018-12-26T23:50:28.131Z,23.40
2018-12-26T23:52:55.855Z,20.00
2018-12-26T23:55:23.388Z,12.85
2018-12-26T23:57:52.044Z,19.50
